• Join FlightAware (Why Join?)
  • Login
  • US Flag 
04:38PM EST


 

Airport Tracker/Info


-or-


 

Live Flight TrackerFlight Track Log ✈ XSR335 ✈ 30-May-2014 ✈ KORD - KFTW

Flight Track Log - Related Links

Times and Time Zones

All times are in EDT time to prevent confusion due to time zone crossing. See the XSR335 flight status page for this flight to view local times or setup timezone preferences in your user account.

Time Position Orientation Groundspeed Altitude Reporting Facility
EDT Latitude Longitude Course Direction KTS MPH feet Rate Location/Type
06:08PM 41.9683 -87.8950 102° East 157 181 1,400  Level FlightAware ADS-B (KMDW)
06:08PM 41.9655 -87.8856 115° Southeast 168 193 2,000 3,360 Climbing FlightAware ADS-B (KMDW)
06:08PM 41.9567 -87.8637 121° Southeast 198 228 3,200 3,300 Climbing FlightAware ADS-B
06:09PM 41.9525 -87.8568 140° Southeast 200 230 3,600 3,660 Climbing FlightAware ADS-B (KMDW)
06:09PM 41.9430 -87.8507 164° South 213 245 4,300 2,520 Climbing FlightAware ADS-B (KMDW)
06:09PM 41.9330 -87.8492 177° South 218 251 4,500 2,640 Climbing FlightAware ADS-B (KMDW)
06:09PM 41.9044 -87.8492 180° South 234 269 6,000 3,540 Climbing FlightAware ADS-B (KMDW)
06:10PM 41.8802 -87.8491 180° South 236 272 7,400 5,580 Climbing FlightAware ADS-B (KMDW)
06:10PM 41.8557 -87.8487 180° South 237 273 8,900 4,020 Climbing FlightAware ADS-B
06:10PM 41.8464 -87.8486 179° South 237 273 9,500 3,180 Climbing FlightAware ADS-B (KMDW)
06:11PM 41.8196 -87.8509 202° Southwest 248 285 11,300 4,740 Climbing FlightAware ADS-B (KMDW)
06:11PM 41.7926 -87.8705 210° Southwest 254 292 12,600 2,820 Climbing FlightAware ADS-B
06:11PM 41.7726 -87.8863 211° Southwest 266 306 13,500 1,920 Climbing FlightAware ADS-B (KMDW)
06:12PM 41.7388 -87.9133 211° Southwest 295 339 14,600 2,700 Climbing FlightAware ADS-B (KMDW)
06:12PM 41.7079 -87.9383 211° Southwest 298 343 16,200 2,400 Climbing FlightAware ADS-B (KMDW)
06:13PM 41.6548 -87.9804 211° Southwest 325 374 17,400 1,560 Climbing FlightAware ADS-B (KMDW)
06:14PM 41.6151 -88.0120 211° Southwest 351 404 18,000 1,140 Climbing FlightAware ADS-B (KMDW)
06:14PM 41.5713 -88.0469 211° Southwest 369 425 18,600 1,860 Climbing FlightAware ADS-B (KMDW)
06:15PM 41.5148 -88.0916 211° Southwest 364 419 20,200 2,760 Climbing FlightAware ADS-B (KMDW)
06:15PM 41.4721 -88.1254 211° Southwest 350 403 21,800 2,760 Climbing FlightAware ADS-B (KMDW)
06:16PM 41.4286 -88.1597 211° Southwest 348 400 23,000 2,880 Climbing FlightAware ADS-B (KMDW)
06:16PM 41.4038 -88.1791 207° Southwest 349 402 23,600 6,000 Climbing FlightAware ADS-B
06:16PM 41.4115 -88.1732 205° Southwest 349 402 24,200 1,620 Climbing FlightAware ADS-B (KPWK)
06:17PM 41.3599 -88.2006 197° South 347 399 24,700 1,560 Climbing FlightAware ADS-B (KMDW)
06:17PM 41.2922 -88.2307 199° South 351 404 26,300 2,160 Climbing FlightAware ADS-B (KMDW)
06:18PM 41.2439 -88.2525 199° South 353 406 27,400 2,040 Climbing FlightAware ADS-B (KMDW)
06:19PM 41.1535 -88.2935 199° South 365 420 29,400 1,920 Climbing FlightAware ADS-B (KMDW)
06:19PM 41.1070 -88.3145 199° South 370 426 30,300 1,680 Climbing FlightAware ADS-B (KMDW)
06:20PM 41.0352 -88.3469 199° South 377 434 31,500 1,740 Climbing FlightAware ADS-B (KMDW)
06:21PM 40.9388 -88.3903 199° South 379 436 33,200 1,740 Climbing FlightAware ADS-B (KMDW)
06:22PM 40.8670 -88.4224 199° South 380 437 34,500 1,740 Climbing FlightAware ADS-B (KMDW)
06:22PM 40.8152 -88.4456 199° South 380 437 35,400 1,800 Climbing FlightAware ADS-B (KMDW)
06:23PM 40.7361 -88.4808 199° South 376 433 36,900 1,500 Climbing FlightAware ADS-B (KMDW)
06:24PM 40.6713 -88.5097 199° South 378 435 37,700 1,200 Climbing FlightAware ADS-B (KMDW)
06:24PM 40.6180 -88.5334 199° South 386 444 38,400 960 Climbing FlightAware ADS-B (KMDW)
06:26PM 40.4781 -88.5955 199° South 394 453 39,700 840 Climbing FlightAware ADS-B (KMDW)
06:28PM 40.2309 -88.7751 223° Southwest 393 452 42,200 660 Climbing FlightAware ADS-B (KMDW)
06:31PM 40.0191 -89.0371 224° Southwest 417 480 43,600 480 Climbing FlightAware ADS-B (KMDW)
06:32PM 39.9114 -89.1681 224° Southwest 411 473 44,000 420 Climbing Kansas City Center
06:33PM 39.8256 -89.2744 224° Southwest 420 483 44,500 480 Climbing Kansas City Center
06:34PM 39.7397 -89.3794 223° Southwest 421 484 45,000 240 Climbing Kansas City Center
06:35PM 39.6486 -89.4925 224° Southwest 423 487 45,000  Level Kansas City Center
06:36PM 39.5597 -89.6011 223° Southwest 435 501 45,000  Level Kansas City Center
06:37PM 39.4686 -89.7089 222° Southwest 442 509 45,000  Level Kansas City Center
06:38PM 39.3603 -89.8411 223° Southwest 443 510 45,000  Level Kansas City Center
06:39PM 39.2700 -89.9478 222° Southwest 443 510 45,000  Level Kansas City Center
06:40PM 39.1839 -90.0522 223° Southwest 443 510 45,000  Level Kansas City Center
06:42PM 39.0942 -90.1606 223° Southwest 443 510 45,000  Level Kansas City Center
06:43PM 39.0039 -90.2672 223° Southwest 443 510 45,000  Level Kansas City Center
06:44PM 38.9069 -90.3831 223° Southwest 442 509 45,000  Level Kansas City Center
06:45PM 38.8161 -90.4889 222° Southwest 442 509 45,000  Level Kansas City Center
06:46PM 38.7092 -90.6172 223° Southwest 441 507 45,000  Level Kansas City Center
06:47PM 38.6467 -90.7242 233° Southwest 438 504 45,000  Level Kansas City Center
06:48PM 38.5772 -90.8533 236° Southwest 438 504 45,000  Level Kansas City Center
06:49PM 38.4947 -91.0058 235° Southwest 436 502 45,000  Level Kansas City Center
06:50PM 38.4256 -91.1347 236° Southwest 438 504 45,000  Level Kansas City Center
06:51PM 38.3361 -91.2439 224° Southwest 449 517 45,000  Level Kansas City Center
06:52PM 38.2433 -91.3475 221° Southwest 447 514 45,000  Level Kansas City Center
06:53PM 38.1503 -91.4450 219° Southwest 437 503 45,000  Level Kansas City Center
06:54PM 38.0369 -91.5667 220° Southwest 436 502 45,000  Level Kansas City Center
06:55PM 37.9422 -91.6681 220° Southwest 437 503 45,000  Level Kansas City Center
06:56PM 37.8450 -91.7706 220° Southwest 446 513 45,000  Level Kansas City Center
06:57PM 37.7503 -91.8717 220° Southwest 446 513 45,000  Level Kansas City Center
06:58PM 37.6553 -91.9731 220° Southwest 445 512 45,000  Level Kansas City Center
06:59PM 37.5608 -92.0739 220° Southwest 444 511 45,000  Level Kansas City Center
07:00PM 37.4656 -92.1736 220° Southwest 444 511 45,000  Level Kansas City Center
07:01PM 37.3714 -92.2739 220° Southwest 444 511 45,000  Level Kansas City Center
07:02PM 37.2569 -92.3919 219° Southwest 443 510 45,000  Level Kansas City Center
07:03PM 37.1625 -92.4908 220° Southwest 443 510 45,000  Level Kansas City Center
07:04PM 37.0669 -92.5900 220° Southwest 443 510 45,000  Level Kansas City Center
07:05PM 36.9719 -92.6889 220° Southwest 443 510 45,000  Level Kansas City Center
07:06PM 36.8764 -92.7869 219° Southwest 443 510 45,000  Level Kansas City Center
07:12PM 37.1988 -92.4514 219° Southwest 444 511 45,000  Level FlightAware ADS-B
07:13PM 36.2669 -93.4031 219° Southwest 444 511 45,000  Level Fort Worth Center
07:18PM 35.7139 -93.9526 219° Southwest 445 512 45,000 -60 Level FlightAware ADS-B
07:19PM 35.6483 -94.0172 219° Southwest 448 516 44,900 -420 Descending FlightAware ADS-B
07:20PM 35.5825 -94.0818 219° Southwest 452 520 44,500 -540 Descending FlightAware ADS-B
07:20PM 35.5177 -94.1453 219° Southwest 448 516 44,200 -480 Descending FlightAware ADS-B
07:21PM 35.4528 -94.2088 219° Southwest 443 510 43,900 -540 Descending FlightAware ADS-B
07:21PM 35.4050 -94.2555 219° Southwest 441 507 43,600 -600 Descending FlightAware ADS-B
07:22PM 35.3548 -94.3067 223° Southwest 442 509 43,300 -480 Descending FlightAware ADS-B
07:23PM 35.2868 -94.3824 222° Southwest 448 516 43,000 -240 Descending FlightAware ADS-B
07:23PM 35.2392 -94.4336 222° Southwest 444 511 43,000  Level Memphis Center
07:24PM 35.1464 -94.5347 222° Southwest 445 512 43,000  Level Memphis Center
07:25PM 35.0547 -94.6344 222° Southwest 445 512 43,000  Level Memphis Center
07:26PM 34.9636 -94.7331 222° Southwest 445 512 43,000  Level Memphis Center
07:28PM 34.8561 -94.8536 223° Southwest 443 510 43,000  Level Memphis Center
07:28PM 34.8081 -94.9203 229° Southwest 440 506 43,000 -240 Level Fort Worth Center
07:29PM 34.7250 -95.0247 226° Southwest 437 503 42,600 -840 Descending Fort Worth Center
07:30PM 34.6269 -95.1503 227° Southwest 435 501 41,300 -1,680 Descending Fort Worth Center
07:31PM 34.5414 -95.2564 226° Southwest 434 499 39,100 -2,280 Descending Fort Worth Center
07:32PM 34.4569 -95.3628 226° Southwest 437 503 36,600 -2,460 Descending Fort Worth Center
07:33PM 34.3694 -95.4717 226° Southwest 447 514 34,100 -2,520 Descending Fort Worth Center
07:34PM 34.2742 -95.5881 225° Southwest 444 511 31,400 -2,580 Descending Fort Worth Center
07:36PM 34.1847 -95.6994 226° Southwest 456 525 28,800 -2,640 Descending Fort Worth Center
07:37PM 34.0886 -95.8183 226° Southwest 457 526 26,000 -2,760 Descending Fort Worth Center
07:38PM 33.9811 -95.9156 217° Southwest 453 521 23,200 -2,640 Descending Fort Worth Center
07:39PM 33.8853 -96.0139 220° Southwest 454 522 20,600 -2,520 Descending Fort Worth Center
07:40PM 33.8011 -96.1272 228° Southwest 439 505 18,000 -2,400 Descending Fort Worth Center
07:41PM 33.7239 -96.2311 228° Southwest 419 482 15,700 -2,280 Descending Fort Worth Center
07:42PM 33.6417 -96.3394 228° Southwest 411 473 13,300 -2,100 Descending Fort Worth Center
07:43PM 33.5694 -96.4358 228° Southwest 390 449 11,400 -1,680 Descending Fort Worth Center
07:44PM 33.5044 -96.5239 228° Southwest 325 374 9,900 -1,200 Descending Fort Worth Center
07:45PM 33.4481 -96.5978 228° Southwest 305 351 9,000 -900 Descending Fort Worth Center
07:50PM 33.2560 -97.0635 233° Southwest 279 321 4,100 -840 Descending FlightAware ADS-B (KAFW)
07:51PM 33.2365 -97.0942 232° Southwest 278 320 4,100  Level FlightAware ADS-B (KAFW)
07:51PM 33.2155 -97.1176 203° Southwest 280 322 4,100  Level FlightAware ADS-B
07:51PM 33.1978 -97.1267 203° Southwest 279 321 4,100  Level FlightAware ADS-B (KAFW)
07:52PM 33.1837 -97.1344 205° Southwest 279 321 4,100  Level FlightAware ADS-B (KAFW)
07:53PM 33.1168 -97.1741 206° Southwest 277 319 4,100  Level FlightAware ADS-B (KAFW)
07:53PM 33.0972 -97.1860 206° Southwest 279 321 4,100  Level FlightAware ADS-B (KAFW)
07:53PM 33.0725 -97.2009 207° Southwest 279 321 4,100  Level FlightAware ADS-B (KAFW)
07:54PM 33.0438 -97.2182 207° Southwest 277 319 4,100  Level FlightAware ADS-B
07:54PM 33.0224 -97.2311 207° Southwest 277 319 4,100  Level FlightAware ADS-B
07:54PM 33.0040 -97.2422 207° Southwest 273 314 4,100  Level FlightAware ADS-B
07:54PM 32.9902 -97.2506 206° Southwest 269 310 4,100 -660 Level FlightAware ADS-B (KAFW)
07:55PM 32.9693 -97.2632 206° Southwest 256 295 3,700 -1,320 Descending FlightAware ADS-B (KAFW)
07:55PM 32.9476 -97.2762 206° Southwest 243 280 3,200 -1,320 Descending FlightAware ADS-B (KAFW)
07:55PM 32.9315 -97.2859 206° Southwest 234 269 2,900 -1,140 Descending FlightAware ADS-B (KAFW)
07:56PM 32.9111 -97.2980 206° Southwest 227 261 2,500 -900 Descending FlightAware ADS-B (KAFW)
07:56PM 32.8926 -97.3092 207° Southwest 210 242 2,300 -480 Descending FlightAware ADS-B (KAFW)
07:56PM 32.8798 -97.3150 197° South 199 229 2,300  Level FlightAware ADS-B
07:56PM 32.8738 -97.3152 180° South 188 216 2,300  Level FlightAware ADS-B (KAFW)
07:57PM 32.8545 -97.3154 178° South 177 204 2,300  Level FlightAware ADS-B (KAFW)
07:57PM 32.8391 -97.3134 173° South 175 201 2,300  Level FlightAware ADS-B (KAFW)
07:57PM 32.8242 -97.3109 171° South 178 205 2,300 -300 Level FlightAware ADS-B (KAFW)
07:58PM 32.7998 -97.3052 169° South 168 193 2,100 -540 Descending FlightAware ADS-B
07:59PM 32.7793 -97.3218 250° West 143 165 1,700 -540 Descending FlightAware ADS-B
07:59PM 32.7764 -97.3361 264° West 136 157 1,600 -600 Descending FlightAware ADS-B
08:00PM 32.7907 -97.3559 351° North 114 131 1,100 -600 Descending FlightAware ADS-B
08:00PM 32.8003 -97.3576 354° North 107 123 1,000 -480 Descending FlightAware ADS-B
08:00PM 32.8102 -97.3592 353° North 108 124 800 -600 Descending FlightAware ADS-B